createdAt,value
2019-01-12T00:00:16.421Z,5.60
2019-01-12T00:00:18.644Z,3.77
2019-01-12T00:01:16.443Z,5.70
2019-01-12T00:02:16.441Z,5.50
2019-01-12T00:02:47.235Z,3.30
2019-01-12T00:03:16.457Z,5.40
2019-01-12T00:04:16.554Z,4.80
2019-01-12T00:05:15.318Z,4.87
2019-01-12T00:05:16.687Z,5.80
2019-01-12T00:06:16.499Z,7.10
2019-01-12T00:07:16.517Z,6.40
2019-01-12T00:07:43.803Z,3.63
2019-01-12T00:08:16.580Z,5.60
2019-01-12T00:09:16.616Z,4.90
2019-01-12T00:10:11.645Z,3.80
2019-01-12T00:10:16.573Z,6.00
2019-01-12T00:11:16.625Z,5.40
2019-01-12T00:12:16.603Z,5.70
2019-01-12T00:12:39.506Z,4.30
2019-01-12T00:13:16.634Z,5.60
2019-01-12T00:14:16.648Z,5.90
2019-01-12T00:15:07.581Z,4.23
2019-01-12T00:15:16.648Z,5.50
2019-01-12T00:16:16.669Z,5.80
2019-01-12T00:17:16.716Z,6.00
2019-01-12T00:17:35.657Z,4.10
2019-01-12T00:18:16.705Z,5.80
2019-01-12T00:19:16.715Z,7.00
2019-01-12T00:20:04.342Z,4.57
2019-01-12T00:20:16.730Z,6.10
2019-01-12T00:21:16.758Z,6.40
2019-01-12T00:22:16.761Z,6.10
2019-01-12T00:22:32.125Z,4.17
2019-01-12T00:23:16.780Z,6.10
2019-01-12T00:24:16.813Z,5.20
2019-01-12T00:24:59.889Z,4.40
2019-01-12T00:25:16.818Z,6.20
2019-01-12T00:26:16.842Z,5.10
2019-01-12T00:27:16.863Z,5.10
2019-01-12T00:27:27.942Z,3.70
2019-01-12T00:28:16.862Z,6.10
2019-01-12T00:29:16.896Z,6.00
2019-01-12T00:29:55.808Z,4.00
2019-01-12T00:30:16.905Z,5.10
2019-01-12T00:31:16.922Z,5.80
2019-01-12T00:32:16.947Z,5.60
2019-01-12T00:32:24.079Z,4.03
2019-01-12T00:33:16.995Z,6.00
2019-01-12T00:34:16.958Z,5.70
2019-01-12T00:34:55.007Z,4.20
2019-01-12T00:35:16.973Z,6.20
2019-01-12T00:36:17.040Z,5.90
2019-01-12T00:37:17.018Z,4.80
2019-01-12T00:37:23.091Z,4.67
2019-01-12T00:38:17.023Z,4.90
2019-01-12T00:39:17.050Z,5.20
2019-01-12T00:39:51.148Z,4.37
2019-01-12T00:40:17.060Z,5.20
2019-01-12T00:41:17.078Z,5.00
2019-01-12T00:42:17.112Z,5.10
2019-01-12T00:42:18.999Z,3.63
2019-01-12T00:43:17.111Z,5.50
2019-01-12T00:44:17.135Z,5.70
2019-01-12T00:44:46.691Z,3.97
2019-01-12T00:45:17.138Z,4.80
2019-01-12T00:46:17.158Z,4.90
2019-01-12T00:47:14.550Z,3.10
2019-01-12T00:47:17.170Z,5.60
2019-01-12T00:48:17.196Z,5.20
2019-01-12T00:49:17.200Z,4.90
2019-01-12T00:49:42.298Z,3.60
2019-01-12T00:50:17.220Z,4.40
2019-01-12T00:51:17.357Z,4.60
2019-01-12T00:52:10.274Z,3.37
2019-01-12T00:52:17.283Z,4.40
2019-01-12T00:53:17.275Z,4.70
2019-01-12T00:54:17.305Z,5.30
2019-01-12T00:54:38.694Z,3.40
2019-01-12T00:55:17.328Z,4.00
2019-01-12T00:56:17.334Z,3.90
2019-01-12T00:57:06.599Z,3.10
2019-01-12T00:57:17.373Z,4.60
2019-01-12T00:58:17.359Z,4.50
2019-01-12T00:59:17.391Z,4.80
2019-01-12T00:59:34.735Z,3.63
2019-01-12T01:00:17.389Z,5.00
2019-01-12T01:01:17.410Z,4.90
2019-01-12T01:02:02.755Z,3.57
2019-01-12T01:02:17.489Z,4.40
2019-01-12T01:03:17.440Z,4.30
2019-01-12T01:04:17.450Z,4.20
2019-01-12T01:04:31.044Z,3.37
2019-01-12T01:05:17.506Z,4.40
2019-01-12T01:06:17.485Z,4.60
2019-01-12T01:06:59.152Z,3.17
2019-01-12T01:07:17.545Z,4.50
2019-01-12T01:08:17.507Z,3.80
2019-01-12T01:09:17.554Z,4.00
2019-01-12T01:09:26.869Z,2.93
2019-01-12T01:10:17.546Z,4.10
2019-01-12T01:11:17.583Z,4.00
2019-01-12T01:11:54.474Z,3.17
2019-01-12T01:12:17.729Z,4.10
2019-01-12T01:13:17.608Z,4.10
2019-01-12T01:14:17.640Z,3.70
2019-01-12T01:14:22.670Z,3.27
2019-01-12T01:15:17.646Z,4.40
2019-01-12T01:16:17.644Z,4.10
2019-01-12T01:16:50.676Z,2.50
2019-01-12T01:17:17.659Z,3.90
2019-01-12T01:18:17.677Z,3.80
2019-01-12T01:19:17.723Z,3.90
2019-01-12T01:19:18.968Z,2.47
2019-01-12T01:20:17.715Z,3.80
2019-01-12T01:21:17.756Z,3.60
2019-01-12T01:21:47.621Z,2.90
2019-01-12T01:22:17.754Z,3.30
2019-01-12T01:23:17.758Z,3.10
2019-01-12T01:24:15.340Z,2.77
2019-01-12T01:24:17.785Z,3.50
2019-01-12T01:25:17.819Z,3.20
2019-01-12T01:26:17.822Z,2.90
2019-01-12T01:26:42.835Z,2.70
2019-01-12T01:27:17.829Z,4.10
2019-01-12T01:28:17.865Z,3.50
2019-01-12T01:29:10.815Z,2.23
2019-01-12T01:29:17.855Z,3.70
2019-01-12T01:30:17.873Z,3.30
2019-01-12T01:31:17.908Z,3.00
2019-01-12T01:31:38.778Z,2.37
2019-01-12T01:32:17.935Z,3.00
2019-01-12T01:33:17.936Z,2.80
2019-01-12T01:34:06.766Z,2.40
2019-01-12T01:34:18.045Z,2.70
2019-01-12T01:35:17.959Z,3.20
2019-01-12T01:36:17.968Z,3.00
2019-01-12T01:36:34.344Z,1.70
2019-01-12T01:37:18.000Z,3.10
2019-01-12T01:38:18.001Z,3.10
2019-01-12T01:39:02.269Z,2.03
2019-01-12T01:39:18.042Z,3.40
2019-01-12T01:40:18.048Z,3.10
2019-01-12T01:41:18.058Z,3.30
2019-01-12T01:41:29.916Z,2.40
2019-01-12T01:42:18.067Z,2.80
2019-01-12T01:43:18.086Z,3.30
2019-01-12T01:43:57.696Z,2.07
2019-01-12T01:44:18.128Z,3.20
2019-01-12T01:45:18.125Z,3.20
2019-01-12T01:46:18.140Z,2.70
2019-01-12T01:46:25.681Z,2.30
2019-01-12T01:47:18.162Z,2.70
2019-01-12T01:48:18.188Z,3.30
2019-01-12T01:48:56.798Z,1.73
2019-01-12T01:49:18.213Z,2.90
2019-01-12T01:50:18.207Z,3.10
2019-01-12T01:51:18.243Z,3.20
2019-01-12T01:51:24.575Z,1.97
2019-01-12T01:52:18.254Z,3.30
2019-01-12T01:53:18.255Z,3.00
2019-01-12T01:53:53.041Z,2.10
2019-01-12T01:54:18.273Z,3.20
2019-01-12T01:55:18.309Z,2.90
2019-01-12T01:56:18.295Z,2.70
2019-01-12T01:56:21.008Z,1.80
2019-01-12T01:57:18.314Z,3.00
2019-01-12T01:58:18.337Z,2.80
2019-01-12T01:58:48.899Z,2.53
2019-01-12T01:59:18.347Z,2.60
2019-01-12T02:00:18.391Z,2.90
2019-01-12T02:01:16.818Z,2.53
2019-01-12T02:01:18.404Z,3.40
2019-01-12T02:02:18.419Z,2.70
2019-01-12T02:03:18.409Z,3.40
2019-01-12T02:03:44.587Z,2.00
2019-01-12T02:04:18.477Z,3.10
2019-01-12T02:05:18.442Z,3.50
2019-01-12T02:06:12.479Z,2.30
2019-01-12T02:06:18.517Z,2.70
2019-01-12T02:07:18.486Z,2.60
2019-01-12T02:08:18.498Z,2.50
2019-01-12T02:08:40.444Z,1.73
2019-01-12T02:09:18.518Z,2.80
2019-01-12T02:10:18.556Z,2.70
2019-01-12T02:11:08.714Z,2.70
2019-01-12T02:11:18.550Z,2.80
2019-01-12T02:12:18.557Z,2.40
2019-01-12T02:13:18.587Z,2.80
2019-01-12T02:13:36.691Z,2.13
2019-01-12T02:14:18.653Z,2.50
2019-01-12T02:15:18.647Z,2.50
2019-01-12T02:16:04.862Z,1.83
2019-01-12T02:16:18.640Z,2.40
2019-01-12T02:17:18.640Z,3.00
2019-01-12T02:18:18.656Z,2.40
2019-01-12T02:18:32.631Z,1.83
2019-01-12T02:19:18.669Z,2.80
2019-01-12T02:20:18.690Z,2.70
2019-01-12T02:21:01.610Z,2.30
2019-01-12T02:21:18.709Z,2.60
2019-01-12T02:22:18.768Z,1.90
2019-01-12T02:23:18.797Z,2.10
2019-01-12T02:23:29.894Z,1.33
2019-01-12T02:24:18.756Z,2.10
2019-01-12T02:25:18.790Z,2.40
2019-01-12T02:25:59.402Z,1.70
2019-01-12T02:26:18.814Z,2.10
2019-01-12T02:27:18.834Z,2.70
2019-01-12T02:28:18.821Z,2.30
2019-01-12T02:28:27.252Z,1.67
2019-01-12T02:29:18.957Z,2.00
2019-01-12T02:30:19.008Z,2.10
2019-01-12T02:30:56.245Z,1.40
2019-01-12T02:31:18.882Z,2.50
2019-01-12T02:32:18.906Z,2.20
2019-01-12T02:33:18.903Z,2.10
2019-01-12T02:33:24.569Z,1.77
2019-01-12T02:34:18.921Z,2.10
2019-01-12T02:35:18.936Z,2.40
2019-01-12T02:35:53.366Z,1.53
2019-01-12T02:36:19.053Z,1.80
2019-01-12T02:37:19.131Z,1.70
2019-01-12T02:38:19.345Z,1.90
2019-01-12T02:38:22.230Z,1.83
2019-01-12T02:39:19.048Z,1.60
2019-01-12T02:40:19.114Z,2.00
2019-01-12T02:40:50.896Z,1.20
2019-01-12T02:41:19.594Z,1.90
2019-01-12T02:42:19.078Z,2.20
2019-01-12T02:43:18.484Z,1.47
2019-01-12T02:43:19.069Z,2.00
2019-01-12T02:44:19.078Z,2.00
2019-01-12T02:45:19.110Z,1.70
2019-01-12T02:45:46.640Z,1.50
2019-01-12T02:46:19.145Z,2.20
2019-01-12T02:47:19.156Z,2.40
2019-01-12T02:48:14.582Z,1.53
2019-01-12T02:48:19.170Z,2.40
2019-01-12T02:49:19.331Z,2.00
2019-01-12T02:50:19.198Z,2.20
2019-01-12T02:50:42.965Z,1.90
2019-01-12T02:51:19.201Z,2.30
2019-01-12T02:52:19.274Z,2.20
2019-01-12T02:53:10.618Z,3.30
2019-01-12T02:53:19.347Z,3.00
2019-01-12T02:54:19.263Z,2.80
2019-01-12T02:55:19.262Z,2.70
2019-01-12T02:55:38.383Z,2.73
2019-01-12T02:56:19.281Z,2.90
2019-01-12T02:57:19.303Z,3.50
2019-01-12T02:58:06.350Z,3.10
2019-01-12T02:58:19.331Z,3.00
2019-01-12T02:59:19.335Z,3.10
2019-01-12T03:00:19.349Z,3.00
2019-01-12T03:00:33.939Z,3.67
2019-01-12T03:01:19.374Z,3.30
2019-01-12T03:02:19.377Z,3.00
2019-01-12T03:03:02.012Z,3.50
2019-01-12T03:03:19.417Z,3.20
2019-01-12T03:04:19.454Z,3.50
2019-01-12T03:05:19.447Z,3.90
2019-01-12T03:05:30.071Z,3.97
2019-01-12T03:06:19.554Z,3.50
2019-01-12T03:07:19.481Z,3.10
2019-01-12T03:07:58.420Z,4.10
2019-01-12T03:08:19.478Z,3.50
2019-01-12T03:09:19.491Z,3.20
2019-01-12T03:10:19.513Z,3.30
2019-01-12T03:10:26.361Z,3.40
2019-01-12T03:11:19.527Z,3.30
2019-01-12T03:12:19.544Z,3.10
2019-01-12T03:12:54.182Z,3.77
2019-01-12T03:13:19.569Z,2.80
2019-01-12T03:14:19.590Z,3.00
2019-01-12T03:15:19.616Z,2.80
2019-01-12T03:15:22.284Z,3.77
2019-01-12T03:16:19.617Z,3.20
2019-01-12T03:17:19.772Z,2.90
2019-01-12T03:17:50.058Z,3.37
2019-01-12T03:18:19.660Z,2.60
2019-01-12T03:19:19.656Z,3.20
2019-01-12T03:20:18.361Z,3.13
2019-01-12T03:20:19.689Z,2.50
2019-01-12T03:21:19.698Z,2.70
2019-01-12T03:22:19.721Z,2.90
2019-01-12T03:22:46.069Z,3.00
2019-01-12T03:23:19.723Z,2.70
2019-01-12T03:24:19.735Z,2.60
2019-01-12T03:25:18.546Z,2.87
2019-01-12T03:25:19.814Z,2.80
2019-01-12T03:26:19.778Z,2.90
2019-01-12T03:27:19.799Z,2.90
2019-01-12T03:27:43.749Z,3.00
2019-01-12T03:28:19.799Z,2.60
2019-01-12T03:29:19.823Z,2.50
2019-01-12T03:30:16.101Z,3.00
2019-01-12T03:30:19.971Z,2.80
2019-01-12T03:31:19.870Z,2.80
2019-01-12T03:32:19.887Z,2.50
2019-01-12T03:32:43.873Z,2.80
2019-01-12T03:33:19.905Z,2.70
2019-01-12T03:34:19.907Z,2.80
2019-01-12T03:35:12.829Z,3.00
2019-01-12T03:35:20.000Z,2.60
2019-01-12T03:36:19.930Z,3.00
2019-01-12T03:37:19.959Z,2.80
2019-01-12T03:37:40.933Z,2.70
2019-01-12T03:38:19.980Z,3.10
2019-01-12T03:39:19.986Z,2.90
2019-01-12T03:40:10.293Z,2.53
2019-01-12T03:40:20.014Z,2.70
2019-01-12T03:41:20.070Z,2.60
2019-01-12T03:42:20.030Z,2.40
2019-01-12T03:42:37.854Z,2.80
2019-01-12T03:43:20.091Z,2.80
2019-01-12T03:44:20.077Z,2.40
2019-01-12T03:45:07.159Z,2.60
2019-01-12T03:45:20.080Z,2.40
2019-01-12T03:46:20.120Z,2.40
2019-01-12T03:47:20.123Z,2.50
2019-01-12T03:47:35.482Z,2.50
2019-01-12T03:48:20.134Z,2.80
2019-01-12T03:49:20.154Z,2.20
2019-01-12T03:50:03.930Z,2.53
2019-01-12T03:50:20.173Z,2.60
2019-01-12T03:51:20.187Z,2.30
2019-01-12T03:52:20.191Z,2.10
2019-01-12T03:52:32.014Z,2.27
2019-01-12T03:53:20.217Z,2.20
2019-01-12T03:54:20.227Z,2.50
2019-01-12T03:54:59.948Z,2.43
2019-01-12T03:55:25.352Z,2.60
2019-01-12T03:56:20.265Z,2.10
2019-01-12T03:57:20.287Z,2.00
2019-01-12T03:57:31.317Z,2.50
2019-01-12T03:58:20.309Z,2.00
2019-01-12T03:59:20.398Z,2.00
2019-01-12T03:59:59.447Z,2.40
2019-01-12T04:00:20.378Z,2.30
2019-01-12T04:01:20.357Z,2.20
2019-01-12T04:02:20.357Z,2.10
2019-01-12T04:02:27.016Z,2.30
2019-01-12T04:03:20.388Z,2.10
2019-01-12T04:04:20.408Z,2.10
2019-01-12T04:04:54.722Z,2.00
2019-01-12T04:05:20.412Z,2.10
2019-01-12T04:06:20.477Z,2.40
2019-01-12T04:07:20.449Z,2.50
2019-01-12T04:07:22.625Z,2.03
2019-01-12T04:08:20.531Z,2.00
2019-01-12T04:09:20.499Z,2.10
2019-01-12T04:09:50.544Z,2.07
2019-01-12T04:10:20.603Z,2.00
2019-01-12T04:11:20.503Z,1.90
2019-01-12T04:12:18.517Z,2.03
2019-01-12T04:12:20.527Z,2.00
2019-01-12T04:13:20.613Z,2.10
2019-01-12T04:14:20.554Z,1.80
2019-01-12T04:14:46.108Z,1.77
2019-01-12T04:15:20.576Z,1.80
2019-01-12T04:16:20.609Z,1.40
2019-01-12T04:17:14.023Z,1.67
2019-01-12T04:17:20.628Z,1.70
2019-01-12T04:18:20.628Z,1.90
2019-01-12T04:19:20.666Z,1.60
2019-01-12T04:19:42.497Z,1.60
2019-01-12T04:20:20.660Z,1.70
2019-01-12T04:21:20.697Z,1.70
2019-01-12T04:22:10.232Z,1.70
2019-01-12T04:22:20.696Z,1.50
2019-01-12T04:23:20.712Z,1.60
2019-01-12T04:24:20.722Z,1.50
2019-01-12T04:24:38.158Z,1.40
2019-01-12T04:25:20.751Z,1.70
2019-01-12T04:26:20.758Z,1.30
2019-01-12T04:27:07.833Z,1.67
2019-01-12T04:27:20.777Z,1.70
2019-01-12T04:28:20.790Z,1.70
2019-01-12T04:29:20.805Z,1.50
2019-01-12T04:29:35.619Z,1.50
2019-01-12T04:30:20.831Z,1.60
2019-01-12T04:31:20.837Z,1.40
2019-01-12T04:32:03.296Z,1.50
2019-01-12T04:32:20.867Z,1.90
2019-01-12T04:33:20.904Z,1.70
2019-01-12T04:34:20.910Z,1.50
2019-01-12T04:34:31.036Z,1.40
2019-01-12T04:35:20.926Z,1.60
2019-01-12T04:36:20.958Z,1.50
2019-01-12T04:36:58.878Z,1.43
2019-01-12T04:37:20.938Z,1.50
2019-01-12T04:38:20.963Z,1.60
2019-01-12T04:39:21.027Z,1.60
2019-01-12T04:39:26.549Z,1.33
2019-01-12T04:40:21.020Z,1.60
2019-01-12T04:41:21.042Z,1.40
2019-01-12T04:41:54.243Z,1.63
2019-01-12T04:42:21.038Z,1.90
2019-01-12T04:43:21.045Z,2.10
2019-01-12T04:44:21.102Z,1.70
2019-01-12T04:44:22.617Z,1.53
2019-01-12T04:45:21.070Z,1.80
2019-01-12T04:46:21.093Z,1.60
2019-01-12T04:46:50.756Z,1.70
2019-01-12T04:47:21.108Z,1.80
2019-01-12T04:48:21.119Z,1.60
2019-01-12T04:49:18.924Z,1.60
2019-01-12T04:49:21.136Z,1.70
2019-01-12T04:50:21.158Z,1.70
2019-01-12T04:51:21.169Z,1.60
2019-01-12T04:51:47.003Z,1.70
2019-01-12T04:52:21.201Z,1.70
2019-01-12T04:53:21.207Z,1.70
2019-01-12T04:54:15.183Z,1.50
2019-01-12T04:54:21.324Z,1.50
2019-01-12T04:55:21.261Z,1.60
2019-01-12T04:56:21.319Z,1.80
2019-01-12T04:56:43.342Z,1.70
2019-01-12T04:57:21.278Z,2.20
2019-01-12T04:58:21.297Z,1.90
2019-01-12T04:59:13.953Z,1.90
2019-01-12T04:59:21.312Z,1.70
2019-01-12T05:00:21.325Z,1.80
2019-01-12T05:01:21.344Z,2.00
2019-01-12T05:01:41.979Z,1.87
2019-01-12T05:02:21.364Z,1.80
2019-01-12T05:03:21.393Z,1.90
2019-01-12T05:04:10.329Z,1.97
2019-01-12T05:04:21.403Z,2.20
2019-01-12T05:05:21.446Z,1.80
2019-01-12T05:06:21.438Z,1.70
2019-01-12T05:06:38.183Z,1.70
2019-01-12T05:07:21.432Z,1.80
2019-01-12T05:08:21.479Z,2.00
2019-01-12T05:09:06.920Z,1.87
2019-01-12T05:09:21.519Z,1.80
2019-01-12T05:10:21.485Z,1.80
2019-01-12T05:11:21.522Z,1.70
2019-01-12T05:11:34.624Z,2.33
2019-01-12T05:12:21.541Z,2.30
2019-01-12T05:13:21.559Z,1.80
2019-01-12T05:14:02.600Z,2.17
2019-01-12T05:14:21.546Z,2.00
2019-01-12T05:15:21.613Z,1.90
2019-01-12T05:16:21.603Z,2.20
2019-01-12T05:16:30.662Z,1.90
2019-01-12T05:17:21.734Z,2.00
2019-01-12T05:18:21.629Z,2.20
2019-01-12T05:18:58.745Z,1.90
2019-01-12T05:19:21.642Z,2.40
2019-01-12T05:20:21.650Z,2.00
2019-01-12T05:21:21.659Z,1.90
2019-01-12T05:21:26.920Z,2.17
2019-01-12T05:22:21.682Z,1.90
2019-01-12T05:23:21.721Z,2.50
2019-01-12T05:23:55.226Z,2.17
2019-01-12T05:24:21.772Z,2.10
2019-01-12T05:25:21.742Z,2.30
2019-01-12T05:26:21.746Z,2.20
2019-01-12T05:26:23.670Z,2.40
2019-01-12T05:27:21.760Z,2.10
2019-01-12T05:28:21.777Z,2.10
2019-01-12T05:28:52.315Z,2.00
2019-01-12T05:29:21.794Z,1.90
2019-01-12T05:30:21.811Z,2.00
2019-01-12T05:31:19.909Z,1.97
2019-01-12T05:31:21.830Z,1.90
2019-01-12T05:32:21.876Z,2.00
2019-01-12T05:33:21.869Z,2.50
2019-01-12T05:33:47.921Z,1.53
2019-01-12T05:34:21.885Z,2.20
2019-01-12T05:35:21.904Z,2.30
2019-01-12T05:36:15.949Z,1.60
2019-01-12T05:36:21.946Z,1.90
2019-01-12T05:37:21.938Z,2.40
2019-01-12T05:38:21.953Z,2.00
2019-01-12T05:38:43.809Z,1.70
2019-01-12T05:39:21.952Z,1.80
2019-01-12T05:40:21.985Z,2.10
2019-01-12T05:41:11.565Z,2.10
2019-01-12T05:41:21.989Z,1.80
2019-01-12T05:42:22.009Z,2.10
2019-01-12T05:43:22.082Z,2.10
2019-01-12T05:43:39.419Z,1.73
2019-01-12T05:44:22.037Z,1.80
2019-01-12T05:45:22.122Z,1.90
2019-01-12T05:46:07.613Z,1.70
2019-01-12T05:46:22.110Z,1.80
2019-01-12T05:47:22.099Z,1.70
2019-01-12T05:48:22.099Z,1.80
2019-01-12T05:48:35.270Z,1.60
2019-01-12T05:49:22.118Z,1.70
2019-01-12T05:50:22.192Z,1.60
2019-01-12T05:51:02.946Z,1.93
2019-01-12T05:51:22.153Z,1.70
2019-01-12T05:52:22.185Z,1.90
2019-01-12T05:53:22.189Z,1.60
2019-01-12T05:53:30.588Z,2.00
2019-01-12T05:54:22.226Z,1.70
2019-01-12T05:55:22.235Z,1.30
2019-01-12T05:55:59.281Z,1.50
2019-01-12T05:56:22.247Z,1.50
2019-01-12T05:57:22.256Z,1.40
2019-01-12T05:58:22.301Z,1.60
2019-01-12T05:58:27.584Z,1.80
2019-01-12T05:59:22.302Z,1.50
2019-01-12T06:00:22.291Z,1.50
2019-01-12T06:00:55.237Z,1.30
2019-01-12T06:01:22.308Z,1.50
2019-01-12T06:02:22.362Z,1.70
2019-01-12T06:03:22.346Z,1.60
2019-01-12T06:03:23.181Z,1.83
2019-01-12T06:04:22.381Z,1.60
2019-01-12T06:05:22.373Z,1.60
2019-01-12T06:05:50.832Z,1.80
2019-01-12T06:06:22.412Z,1.70
2019-01-12T06:07:22.495Z,1.50
2019-01-12T06:08:18.933Z,1.77
2019-01-12T06:08:22.464Z,1.80
2019-01-12T06:09:22.441Z,2.10
2019-01-12T06:10:22.471Z,1.70
2019-01-12T06:10:47.075Z,1.90
2019-01-12T06:11:22.497Z,1.70
2019-01-12T06:12:22.488Z,1.80
2019-01-12T06:13:15.559Z,2.00
2019-01-12T06:13:22.511Z,1.60
2019-01-12T06:14:22.531Z,1.70
2019-01-12T06:15:22.539Z,1.60
2019-01-12T06:15:43.351Z,1.67
2019-01-12T06:16:22.571Z,1.70
2019-01-12T06:17:22.594Z,1.80
2019-01-12T06:18:11.295Z,1.90
2019-01-12T06:18:22.585Z,1.70
2019-01-12T06:19:22.616Z,1.80
2019-01-12T06:20:22.626Z,1.80
2019-01-12T06:20:39.490Z,1.83
2019-01-12T06:21:22.641Z,2.10
2019-01-12T06:22:22.679Z,2.30
2019-01-12T06:23:22.795Z,1.90
2019-01-12T06:23:26.887Z,2.00
2019-01-12T06:24:22.693Z,2.00
2019-01-12T06:25:22.752Z,2.30
2019-01-12T06:25:54.747Z,1.87
2019-01-12T06:26:22.781Z,1.90
2019-01-12T06:27:22.731Z,2.10
2019-01-12T06:28:22.436Z,2.10
2019-01-12T06:28:22.764Z,2.20
2019-01-12T06:29:22.759Z,2.10
2019-01-12T06:30:22.796Z,13.50
2019-01-12T06:30:50.205Z,3.50
2019-01-12T06:31:22.810Z,5.90
2019-01-12T06:32:22.817Z,3.50
2019-01-12T06:33:17.938Z,2.83
2019-01-12T06:33:22.831Z,1.80
2019-01-12T06:34:22.950Z,2.40
2019-01-12T06:35:22.869Z,2.20
2019-01-12T06:35:45.809Z,2.37
2019-01-12T06:36:22.882Z,2.50
2019-01-12T06:37:22.893Z,3.20
2019-01-12T06:38:13.558Z,2.47
2019-01-12T06:38:22.915Z,3.10
2019-01-12T06:39:22.930Z,2.10
2019-01-12T06:40:22.971Z,2.60
2019-01-12T06:40:41.610Z,2.50
2019-01-12T06:41:22.965Z,2.70
2019-01-12T06:42:23.010Z,2.50
2019-01-12T06:43:09.602Z,2.40
2019-01-12T06:43:23.010Z,2.70
2019-01-12T06:44:23.023Z,2.30
2019-01-12T06:45:23.031Z,2.30
2019-01-12T06:45:37.610Z,2.97
2019-01-12T06:46:23.042Z,3.60
2019-01-12T06:47:23.073Z,4.40
2019-01-12T06:48:05.334Z,4.23
2019-01-12T06:48:23.092Z,4.80
2019-01-12T06:49:23.090Z,8.00
2019-01-12T06:50:23.116Z,5.40
2019-01-12T06:50:33.599Z,33.67
2019-01-12T06:51:23.120Z,40.00
2019-01-12T06:52:23.140Z,7.80
2019-01-12T06:53:01.725Z,7.13
2019-01-12T06:53:23.265Z,5.30
2019-01-12T06:54:23.184Z,8.30
2019-01-12T06:55:23.303Z,7.20
2019-01-12T06:55:29.540Z,9.50
2019-01-12T06:56:23.219Z,9.60
2019-01-12T06:57:23.224Z,6.50
2019-01-12T06:57:57.843Z,5.77
2019-01-12T06:58:23.239Z,3.60
2019-01-12T06:59:23.288Z,10.10
2019-01-12T07:00:23.270Z,10.00
2019-01-12T07:00:26.196Z,2.97
2019-01-12T07:01:23.301Z,7.40
2019-01-12T07:02:23.313Z,11.80
2019-01-12T07:02:57.100Z,3.30
2019-01-12T07:03:23.348Z,5.10
2019-01-12T07:04:23.604Z,5.50
2019-01-12T07:05:23.397Z,6.20
2019-01-12T07:05:25.380Z,3.00
2019-01-12T07:06:23.463Z,5.30
2019-01-12T07:07:23.390Z,5.90
2019-01-12T07:07:53.191Z,2.93
2019-01-12T07:08:23.406Z,3.60
2019-01-12T07:09:23.417Z,8.10
2019-01-12T07:10:21.244Z,10.27
2019-01-12T07:10:23.443Z,11.70
2019-01-12T07:11:23.446Z,14.30
2019-01-12T07:12:23.562Z,16.60
2019-01-12T07:12:49.159Z,7.80
2019-01-12T07:13:23.477Z,17.10
2019-01-12T07:14:23.513Z,8.30
2019-01-12T07:15:17.290Z,5.33
2019-01-12T07:15:23.561Z,8.60
2019-01-12T07:16:23.541Z,6.70
2019-01-12T07:17:23.550Z,12.00
2019-01-12T07:17:45.278Z,4.30
2019-01-12T07:18:23.562Z,6.00
2019-01-12T07:19:23.606Z,5.30
2019-01-12T07:20:14.244Z,4.57
2019-01-12T07:20:23.593Z,5.50
2019-01-12T07:21:23.630Z,5.70
2019-01-12T07:22:23.641Z,7.70
2019-01-12T07:22:41.918Z,10.73
2019-01-12T07:23:23.734Z,4.60
2019-01-12T07:24:23.665Z,9.90
2019-01-12T07:25:10.107Z,3.23
2019-01-12T07:25:23.810Z,7.20
2019-01-12T07:26:23.711Z,3.90
2019-01-12T07:27:23.717Z,2.80
2019-01-12T07:27:38.241Z,2.20
2019-01-12T07:28:23.729Z,2.40
2019-01-12T07:29:23.778Z,4.00
2019-01-12T07:30:09.561Z,2.30
2019-01-12T07:30:23.766Z,3.50
2019-01-12T07:31:23.810Z,6.10
2019-01-12T07:32:23.788Z,5.90
2019-01-12T07:32:37.460Z,3.60
2019-01-12T07:33:23.811Z,7.40
2019-01-12T07:34:23.838Z,4.20
2019-01-12T07:35:05.445Z,2.60
2019-01-12T07:35:23.838Z,3.10
2019-01-12T07:36:23.873Z,2.60
2019-01-12T07:37:23.876Z,2.50
2019-01-12T07:37:33.289Z,2.90
2019-01-12T07:38:23.900Z,3.30
2019-01-12T07:39:23.995Z,3.10
2019-01-12T07:40:01.950Z,2.33
2019-01-12T07:40:23.922Z,2.70
2019-01-12T07:41:23.956Z,2.10
2019-01-12T07:42:23.954Z,3.90
2019-01-12T07:42:29.607Z,3.00
2019-01-12T07:43:24.000Z,2.80
2019-01-12T07:44:24.034Z,2.90
2019-01-12T07:44:57.908Z,2.10
2019-01-12T07:45:24.022Z,3.00
2019-01-12T07:46:24.054Z,2.00
2019-01-12T07:47:24.040Z,2.30
2019-01-12T07:47:25.515Z,2.67
2019-01-12T07:48:24.052Z,2.40
2019-01-12T07:49:24.105Z,4.50
2019-01-12T07:49:53.024Z,3.03
2019-01-12T07:50:24.097Z,5.40
2019-01-12T07:51:24.211Z,2.40
2019-01-12T07:52:23.349Z,2.97
2019-01-12T07:52:24.121Z,2.50
2019-01-12T07:53:24.128Z,2.50
2019-01-12T07:54:24.200Z,3.00
2019-01-12T07:54:51.518Z,3.10
2019-01-12T07:55:24.217Z,3.10
2019-01-12T07:56:24.764Z,4.10
2019-01-12T07:57:19.791Z,3.57
2019-01-12T07:57:24.206Z,4.00
2019-01-12T07:58:24.215Z,3.00
2019-01-12T07:59:24.234Z,3.10
2019-01-12T07:59:47.807Z,4.57
2019-01-12T08:00:24.251Z,8.60
2019-01-12T08:01:24.273Z,4.70
2019-01-12T08:02:18.698Z,12.67
2019-01-12T08:02:24.277Z,5.90
2019-01-12T08:03:24.308Z,10.90
2019-01-12T08:04:24.324Z,4.20
2019-01-12T08:04:51.201Z,4.07
2019-01-12T08:05:24.332Z,3.70
2019-01-12T08:06:24.337Z,4.00
2019-01-12T08:07:19.396Z,4.00
2019-01-12T08:07:24.361Z,4.50
2019-01-12T08:08:24.383Z,3.80
2019-01-12T08:09:24.384Z,4.00
2019-01-12T08:09:47.720Z,5.00
2019-01-12T08:10:24.409Z,4.10
2019-01-12T08:11:24.447Z,4.20
2019-01-12T08:12:15.796Z,4.37
2019-01-12T08:12:24.488Z,4.00
2019-01-12T08:13:24.470Z,4.50
2019-01-12T08:14:24.476Z,4.30
2019-01-12T08:14:43.988Z,5.27
2019-01-12T08:15:24.511Z,4.70
2019-01-12T08:16:24.502Z,4.50
2019-01-12T08:17:12.454Z,5.33
2019-01-12T08:17:24.524Z,5.10
2019-01-12T08:18:24.537Z,5.30
2019-01-12T08:19:24.592Z,5.90
2019-01-12T08:19:40.291Z,5.67
2019-01-12T08:20:24.602Z,5.70
2019-01-12T08:21:24.602Z,5.70
2019-01-12T08:22:08.182Z,7.43
2019-01-12T08:22:24.668Z,5.90
2019-01-12T08:23:24.611Z,6.70
2019-01-12T08:24:24.631Z,5.70
2019-01-12T08:24:35.858Z,5.57
2019-01-12T08:25:24.659Z,5.30
2019-01-12T08:26:30.947Z,5.10
2019-01-12T08:27:03.905Z,5.97
2019-01-12T08:27:24.728Z,5.40
2019-01-12T08:28:24.698Z,4.80
2019-01-12T08:29:24.748Z,4.90
2019-01-12T08:29:32.090Z,6.63
2019-01-12T08:30:24.733Z,5.80
2019-01-12T08:31:24.769Z,5.10
2019-01-12T08:32:00.149Z,5.67
2019-01-12T08:32:24.827Z,5.10
2019-01-12T08:33:24.774Z,5.00
2019-01-12T08:34:24.806Z,5.30
2019-01-12T08:34:28.735Z,4.90
2019-01-12T08:35:24.864Z,5.00
2019-01-12T08:36:24.823Z,4.90
2019-01-12T08:36:56.619Z,5.73
2019-01-12T08:37:24.882Z,5.30
2019-01-12T08:38:24.880Z,4.80
2019-01-12T08:39:24.463Z,5.07
2019-01-12T08:39:24.878Z,5.10
2019-01-12T08:40:24.894Z,5.40
2019-01-12T08:41:24.914Z,5.10
2019-01-12T08:41:52.325Z,5.90
2019-01-12T08:42:24.920Z,5.60
2019-01-12T08:43:24.928Z,5.10
2019-01-12T08:44:20.721Z,5.83
2019-01-12T08:44:25.060Z,5.50
2019-01-12T08:45:24.964Z,5.90
2019-01-12T08:46:24.981Z,5.70
2019-01-12T08:46:48.413Z,5.70
2019-01-12T08:47:24.997Z,5.20
2019-01-12T08:48:25.017Z,5.60
2019-01-12T08:49:16.237Z,7.57
2019-01-12T08:49:25.041Z,7.40
2019-01-12T08:50:25.055Z,8.00
2019-01-12T08:51:25.062Z,7.00
2019-01-12T08:51:44.701Z,7.17
2019-01-12T08:52:25.079Z,7.20
2019-01-12T08:53:25.108Z,6.50
2019-01-12T08:54:12.606Z,7.10
2019-01-12T08:54:25.114Z,7.60
2019-01-12T08:55:25.135Z,6.60
2019-01-12T08:56:25.150Z,7.30
2019-01-12T08:56:40.655Z,7.53
2019-01-12T08:57:25.173Z,6.20
2019-01-12T08:58:25.328Z,7.50
2019-01-12T08:59:08.772Z,8.27
2019-01-12T08:59:25.215Z,7.20
2019-01-12T09:00:25.216Z,7.70
2019-01-12T09:01:25.288Z,7.60
2019-01-12T09:01:36.659Z,8.80
2019-01-12T09:02:25.238Z,7.70
2019-01-12T09:03:25.272Z,7.70
2019-01-12T09:04:05.329Z,7.83
2019-01-12T09:04:25.281Z,8.60
2019-01-12T09:05:25.288Z,7.60
2019-01-12T09:06:25.361Z,8.40
2019-01-12T09:06:34.434Z,8.10
2019-01-12T09:07:25.333Z,8.40
2019-01-12T09:08:25.446Z,9.10
2019-01-12T09:09:02.371Z,8.83
2019-01-12T09:09:25.365Z,9.30
2019-01-12T09:10:25.384Z,8.40
2019-01-12T09:11:25.391Z,9.00
2019-01-12T09:11:29.919Z,9.03
2019-01-12T09:12:25.397Z,10.50
2019-01-12T09:13:25.446Z,8.80
2019-01-12T09:13:58.058Z,8.63
2019-01-12T09:14:25.464Z,9.00
2019-01-12T09:15:25.457Z,7.80
2019-01-12T09:16:25.467Z,8.90
2019-01-12T09:16:26.440Z,8.47
2019-01-12T09:17:25.485Z,9.30
2019-01-12T09:18:25.491Z,9.70
2019-01-12T09:18:54.298Z,9.53
2019-01-12T09:19:25.553Z,11.00
2019-01-12T09:20:25.521Z,9.20
2019-01-12T09:21:22.594Z,10.80
2019-01-12T09:21:25.557Z,10.00
2019-01-12T09:22:25.584Z,9.90
2019-01-12T09:23:25.585Z,10.00
2019-01-12T09:23:50.643Z,9.77
2019-01-12T09:24:25.604Z,9.50
2019-01-12T09:25:25.627Z,9.30
2019-01-12T09:26:18.350Z,10.80
2019-01-12T09:26:25.635Z,10.00
2019-01-12T09:27:25.645Z,10.30